sensor_id;sensor_type;location;lat;lon;timestamp;P1;durP1;ratioP1;P2;durP2;ratioP2
77586;SDS011;66744;49.716;17.158;2023-11-21T00:00:51;3.78;;;1.63;;
77586;SDS011;66744;49.716;17.158;2023-11-21T00:03:52;4.10;;;1.52;;
77586;SDS011;66744;49.716;17.158;2023-11-21T00:06:56;4.10;;;1.60;;
77586;SDS011;66744;49.716;17.158;2023-11-21T00:09:57;3.30;;;1.23;;
77586;SDS011;66744;49.716;17.158;2023-11-21T00:12:58;5.10;;;2.95;;
77586;SDS011;66744;49.716;17.158;2023-11-21T00:15:59;8.93;;;4.70;;
77586;SDS011;66744;49.716;17.158;2023-11-21T00:19:00;6.63;;;2.88;;
77586;SDS011;66744;49.716;17.158;2023-11-21T00:22:02;3.65;;;1.85;;
77586;SDS011;66744;49.716;17.158;2023-11-21T00:25:04;5.65;;;2.95;;
77586;SDS011;66744;49.716;17.158;2023-11-21T00:28:05;9.43;;;5.13;;
77586;SDS011;66744;49.716;17.158;2023-11-21T00:31:08;9.80;;;6.70;;
77586;SDS011;66744;49.716;17.158;2023-11-21T00:34:09;15.60;;;8.52;;
77586;SDS011;66744;49.716;17.158;2023-11-21T00:37:12;20.77;;;11.40;;
77586;SDS011;66744;49.716;17.158;2023-11-21T00:40:13;20.85;;;11.05;;
77586;SDS011;66744;49.716;17.158;2023-11-21T00:43:16;16.77;;;11.27;;
77586;SDS011;66744;49.716;17.158;2023-11-21T00:46:17;14.82;;;9.00;;
77586;SDS011;66744;49.716;17.158;2023-11-21T00:49:19;14.80;;;8.48;;
77586;SDS011;66744;49.716;17.158;2023-11-21T00:52:21;8.88;;;5.75;;
77586;SDS011;66744;49.716;17.158;2023-11-21T00:55:22;11.40;;;5.18;;
77586;SDS011;66744;49.716;17.158;2023-11-21T00:58:24;6.85;;;3.90;;
77586;SDS011;66744;49.716;17.158;2023-11-21T01:01:27;5.45;;;3.33;;
77586;SDS011;66744;49.716;17.158;2023-11-21T01:04:28;5.72;;;3.20;;
77586;SDS011;66744;49.716;17.158;2023-11-21T01:07:29;6.95;;;3.70;;
77586;SDS011;66744;49.716;17.158;2023-11-21T01:10:30;7.40;;;5.25;;
77586;SDS011;66744;49.716;17.158;2023-11-21T01:13:31;9.85;;;5.28;;
77586;SDS011;66744;49.716;17.158;2023-11-21T01:16:33;4.65;;;3.10;;
77586;SDS011;66744;49.716;17.158;2023-11-21T01:19:34;4.53;;;2.47;;
77586;SDS011;66744;49.716;17.158;2023-11-21T01:22:35;9.45;;;4.03;;
77586;SDS011;66744;49.716;17.158;2023-11-21T01:25:36;16.45;;;8.23;;
77586;SDS011;66744;49.716;17.158;2023-11-21T01:28:37;14.15;;;7.93;;
77586;SDS011;66744;49.716;17.158;2023-11-21T01:31:39;9.68;;;5.82;;
77586;SDS011;66744;49.716;17.158;2023-11-21T01:34:40;7.60;;;5.68;;
77586;SDS011;66744;49.716;17.158;2023-11-21T01:37:41;8.32;;;4.55;;
77586;SDS011;66744;49.716;17.158;2023-11-21T01:40:43;8.82;;;5.53;;
77586;SDS011;66744;49.716;17.158;2023-11-21T01:43:44;6.88;;;4.57;;
77586;SDS011;66744;49.716;17.158;2023-11-21T01:46:45;7.40;;;5.07;;
77586;SDS011;66744;49.716;17.158;2023-11-21T01:49:48;6.70;;;4.65;;
77586;SDS011;66744;49.716;17.158;2023-11-21T01:52:49;6.47;;;4.05;;
77586;SDS011;66744;49.716;17.158;2023-11-21T01:55:51;5.43;;;3.35;;
77586;SDS011;66744;49.716;17.158;2023-11-21T01:58:54;4.50;;;2.95;;
77586;SDS011;66744;49.716;17.158;2023-11-21T02:05:06;7.25;;;3.17;;
77586;SDS011;66744;49.716;17.158;2023-11-21T02:08:09;5.38;;;2.95;;
77586;SDS011;66744;49.716;17.158;2023-11-21T02:11:10;5.53;;;2.70;;
77586;SDS011;66744;49.716;17.158;2023-11-21T02:14:14;4.45;;;2.05;;
77586;SDS011;66744;49.716;17.158;2023-11-21T02:17:16;3.17;;;2.00;;
77586;SDS011;66744;49.716;17.158;2023-11-21T02:20:19;4.45;;;1.98;;
77586;SDS011;66744;49.716;17.158;2023-11-21T02:23:23;4.50;;;2.60;;
77586;SDS011;66744;49.716;17.158;2023-11-21T02:26:29;5.40;;;2.53;;
77586;SDS011;66744;49.716;17.158;2023-11-21T02:29:30;5.20;;;3.58;;
77586;SDS011;66744;49.716;17.158;2023-11-21T02:32:33;4.68;;;2.30;;
77586;SDS011;66744;49.716;17.158;2023-11-21T02:35:35;5.50;;;3.03;;
77586;SDS011;66744;49.716;17.158;2023-11-21T02:38:36;5.55;;;3.38;;
77586;SDS011;66744;49.716;17.158;2023-11-21T02:41:37;7.00;;;3.30;;
77586;SDS011;66744;49.716;17.158;2023-11-21T02:44:39;7.25;;;3.72;;
77586;SDS011;66744;49.716;17.158;2023-11-21T02:47:40;8.32;;;3.78;;
77586;SDS011;66744;49.716;17.158;2023-11-21T02:50:43;4.68;;;3.13;;
77586;SDS011;66744;49.716;17.158;2023-11-21T02:53:44;6.38;;;3.38;;
77586;SDS011;66744;49.716;17.158;2023-11-21T02:56:46;6.55;;;3.38;;
77586;SDS011;66744;49.716;17.158;2023-11-21T02:59:48;5.03;;;3.05;;
77586;SDS011;66744;49.716;17.158;2023-11-21T03:02:49;4.55;;;3.08;;
77586;SDS011;66744;49.716;17.158;2023-11-21T03:05:51;4.32;;;2.75;;
77586;SDS011;66744;49.716;17.158;2023-11-21T03:08:52;3.75;;;2.55;;
77586;SDS011;66744;49.716;17.158;2023-11-21T03:11:53;3.83;;;2.38;;
77586;SDS011;66744;49.716;17.158;2023-11-21T03:14:56;5.47;;;2.22;;
77586;SDS011;66744;49.716;17.158;2023-11-21T03:17:57;4.57;;;2.40;;
77586;SDS011;66744;49.716;17.158;2023-11-21T03:20:58;5.65;;;2.13;;
77586;SDS011;66744;49.716;17.158;2023-11-21T03:24:00;3.65;;;2.30;;
77586;SDS011;66744;49.716;17.158;2023-11-21T03:27:01;4.07;;;2.72;;
77586;SDS011;66744;49.716;17.158;2023-11-21T03:30:03;3.80;;;2.95;;
77586;SDS011;66744;49.716;17.158;2023-11-21T03:33:05;5.18;;;3.58;;
77586;SDS011;66744;49.716;17.158;2023-11-21T03:36:08;5.90;;;2.80;;
77586;SDS011;66744;49.716;17.158;2023-11-21T03:39:10;4.45;;;2.60;;
77586;SDS011;66744;49.716;17.158;2023-11-21T03:42:11;4.50;;;2.92;;
77586;SDS011;66744;49.716;17.158;2023-11-21T03:45:12;5.05;;;2.50;;
77586;SDS011;66744;49.716;17.158;2023-11-21T03:48:15;4.53;;;3.33;;
77586;SDS011;66744;49.716;17.158;2023-11-21T03:51:17;5.72;;;3.45;;
77586;SDS011;66744;49.716;17.158;2023-11-21T03:54:18;5.57;;;3.08;;
77586;SDS011;66744;49.716;17.158;2023-11-21T03:57:19;8.43;;;3.00;;
77586;SDS011;66744;49.716;17.158;2023-11-21T04:00:20;7.07;;;3.60;;
77586;SDS011;66744;49.716;17.158;2023-11-21T04:03:21;6.82;;;3.58;;
77586;SDS011;66744;49.716;17.158;2023-11-21T04:06:23;8.02;;;3.15;;
77586;SDS011;66744;49.716;17.158;2023-11-21T04:09:24;5.28;;;3.00;;
77586;SDS011;66744;49.716;17.158;2023-11-21T04:12:26;5.00;;;3.25;;
77586;SDS011;66744;49.716;17.158;2023-11-21T04:15:27;6.45;;;3.65;;
77586;SDS011;66744;49.716;17.158;2023-11-21T04:18:28;9.18;;;4.68;;
77586;SDS011;66744;49.716;17.158;2023-11-21T04:21:29;7.60;;;4.18;;
77586;SDS011;66744;49.716;17.158;2023-11-21T04:24:30;8.07;;;5.13;;
77586;SDS011;66744;49.716;17.158;2023-11-21T04:27:32;6.85;;;4.05;;
77586;SDS011;66744;49.716;17.158;2023-11-21T04:30:33;8.95;;;5.10;;
77586;SDS011;66744;49.716;17.158;2023-11-21T04:33:34;10.15;;;5.60;;
77586;SDS011;66744;49.716;17.158;2023-11-21T04:36:35;10.13;;;4.90;;
77586;SDS011;66744;49.716;17.158;2023-11-21T04:39:37;11.02;;;4.72;;
77586;SDS011;66744;49.716;17.158;2023-11-21T04:42:38;6.97;;;4.28;;
77586;SDS011;66744;49.716;17.158;2023-11-21T04:45:39;7.22;;;5.35;;
77586;SDS011;66744;49.716;17.158;2023-11-21T04:48:42;8.63;;;4.55;;
77586;SDS011;66744;49.716;17.158;2023-11-21T04:51:43;9.88;;;4.90;;
77586;SDS011;66744;49.716;17.158;2023-11-21T04:54:44;6.93;;;4.07;;
77586;SDS011;66744;49.716;17.158;2023-11-21T04:57:45;7.88;;;4.60;;
77586;SDS011;66744;49.716;17.158;2023-11-21T05:00:48;10.35;;;4.22;;
77586;SDS011;66744;49.716;17.158;2023-11-21T05:03:50;6.63;;;3.97;;
77586;SDS011;66744;49.716;17.158;2023-11-21T05:06:52;8.77;;;5.03;;
77586;SDS011;66744;49.716;17.158;2023-11-21T05:09:54;7.93;;;4.30;;
77586;SDS011;66744;49.716;17.158;2023-11-21T05:12:58;8.77;;;5.07;;
77586;SDS011;66744;49.716;17.158;2023-11-21T05:15:59;8.65;;;5.10;;
77586;SDS011;66744;49.716;17.158;2023-11-21T05:19:00;8.88;;;4.97;;
77586;SDS011;66744;49.716;17.158;2023-11-21T05:22:02;9.02;;;5.13;;
77586;SDS011;66744;49.716;17.158;2023-11-21T05:25:04;6.80;;;3.20;;
77586;SDS011;66744;49.716;17.158;2023-11-21T05:28:06;6.80;;;4.05;;
77586;SDS011;66744;49.716;17.158;2023-11-21T05:31:07;12.93;;;4.78;;
77586;SDS011;66744;49.716;17.158;2023-11-21T05:34:09;7.28;;;4.50;;
77586;SDS011;66744;49.716;17.158;2023-11-21T05:37:10;4.85;;;3.47;;
77586;SDS011;66744;49.716;17.158;2023-11-21T05:40:11;7.25;;;4.43;;
77586;SDS011;66744;49.716;17.158;2023-11-21T05:43:13;8.77;;;6.13;;
77586;SDS011;66744;49.716;17.158;2023-11-21T05:46:16;7.68;;;4.50;;
77586;SDS011;66744;49.716;17.158;2023-11-21T05:49:17;6.30;;;4.65;;
77586;SDS011;66744;49.716;17.158;2023-11-21T05:52:22;7.38;;;4.30;;
77586;SDS011;66744;49.716;17.158;2023-11-21T05:55:23;5.32;;;3.97;;
77586;SDS011;66744;49.716;17.158;2023-11-21T05:58:26;6.40;;;3.70;;
77586;SDS011;66744;49.716;17.158;2023-11-21T06:01:27;8.70;;;4.35;;
77586;SDS011;66744;49.716;17.158;2023-11-21T06:04:29;6.43;;;4.15;;
77586;SDS011;66744;49.716;17.158;2023-11-21T06:07:30;6.47;;;4.45;;
77586;SDS011;66744;49.716;17.158;2023-11-21T06:10:31;4.55;;;3.38;;
77586;SDS011;66744;49.716;17.158;2023-11-21T06:13:32;6.55;;;3.92;;
77586;SDS011;66744;49.716;17.158;2023-11-21T06:16:33;6.82;;;4.38;;
77586;SDS011;66744;49.716;17.158;2023-11-21T06:19:34;5.93;;;3.47;;
77586;SDS011;66744;49.716;17.158;2023-11-21T06:22:36;8.95;;;3.83;;
77586;SDS011;66744;49.716;17.158;2023-11-21T06:25:38;5.40;;;3.90;;
77586;SDS011;66744;49.716;17.158;2023-11-21T06:28:40;14.35;;;9.50;;
77586;SDS011;66744;49.716;17.158;2023-11-21T06:31:42;14.57;;;8.57;;
77586;SDS011;66744;49.716;17.158;2023-11-21T06:34:44;14.52;;;8.65;;
77586;SDS011;66744;49.716;17.158;2023-11-21T06:37:45;20.25;;;11.55;;
77586;SDS011;66744;49.716;17.158;2023-11-21T06:40:48;18.45;;;9.75;;
77586;SDS011;66744;49.716;17.158;2023-11-21T06:43:49;13.35;;;8.15;;
77586;SDS011;66744;49.716;17.158;2023-11-21T06:46:51;8.13;;;5.18;;
77586;SDS011;66744;49.716;17.158;2023-11-21T06:49:52;9.38;;;5.63;;
77586;SDS011;66744;49.716;17.158;2023-11-21T06:52:53;9.48;;;5.22;;
77586;SDS011;66744;49.716;17.158;2023-11-21T06:55:55;8.82;;;4.82;;
77586;SDS011;66744;49.716;17.158;2023-11-21T06:58:56;12.32;;;5.82;;
77586;SDS011;66744;49.716;17.158;2023-11-21T07:01:57;10.27;;;5.35;;
77586;SDS011;66744;49.716;17.158;2023-11-21T07:04:58;9.00;;;5.47;;
77586;SDS011;66744;49.716;17.158;2023-11-21T07:08:00;7.15;;;4.63;;
77586;SDS011;66744;49.716;17.158;2023-11-21T07:11:05;10.88;;;5.57;;
77586;SDS011;66744;49.716;17.158;2023-11-21T07:14:06;9.55;;;5.22;;
77586;SDS011;66744;49.716;17.158;2023-11-21T07:17:11;8.48;;;5.18;;
77586;SDS011;66744;49.716;17.158;2023-11-21T07:20:15;8.48;;;4.78;;
77586;SDS011;66744;49.716;17.158;2023-11-21T07:23:17;9.15;;;6.07;;
77586;SDS011;66744;49.716;17.158;2023-11-21T07:26:19;8.68;;;4.65;;
77586;SDS011;66744;49.716;17.158;2023-11-21T07:29:20;9.48;;;5.70;;
77586;SDS011;66744;49.716;17.158;2023-11-21T07:32:21;11.68;;;5.57;;
77586;SDS011;66744;49.716;17.158;2023-11-21T07:35:22;9.38;;;5.65;;
77586;SDS011;66744;49.716;17.158;2023-11-21T07:38:23;7.28;;;5.60;;
77586;SDS011;66744;49.716;17.158;2023-11-21T07:41:24;7.65;;;4.50;;
77586;SDS011;66744;49.716;17.158;2023-11-21T07:44:26;10.38;;;6.80;;
77586;SDS011;66744;49.716;17.158;2023-11-21T07:47:27;13.48;;;6.95;;
77586;SDS011;66744;49.716;17.158;2023-11-21T07:50:28;10.45;;;5.72;;
77586;SDS011;66744;49.716;17.158;2023-11-21T07:53:30;8.98;;;5.93;;
77586;SDS011;66744;49.716;17.158;2023-11-21T07:56:31;14.02;;;6.43;;
77586;SDS011;66744;49.716;17.158;2023-11-21T07:59:33;10.10;;;5.18;;
77586;SDS011;66744;49.716;17.158;2023-11-21T08:02:34;8.68;;;5.47;;
77586;SDS011;66744;49.716;17.158;2023-11-21T08:05:36;9.82;;;5.88;;
77586;SDS011;66744;49.716;17.158;2023-11-21T08:08:37;11.18;;;5.40;;
77586;SDS011;66744;49.716;17.158;2023-11-21T08:11:38;10.45;;;6.00;;
77586;SDS011;66744;49.716;17.158;2023-11-21T08:14:40;12.82;;;5.75;;
77586;SDS011;66744;49.716;17.158;2023-11-21T08:17:41;12.63;;;6.18;;
77586;SDS011;66744;49.716;17.158;2023-11-21T08:20:43;10.50;;;6.22;;
77586;SDS011;66744;49.716;17.158;2023-11-21T08:23:45;12.95;;;6.57;;
77586;SDS011;66744;49.716;17.158;2023-11-21T08:26:47;10.07;;;5.57;;
77586;SDS011;66744;49.716;17.158;2023-11-21T08:29:49;11.45;;;5.90;;
77586;SDS011;66744;49.716;17.158;2023-11-21T08:32:50;8.13;;;4.72;;
77586;SDS011;66744;49.716;17.158;2023-11-21T08:35:53;15.02;;;6.93;;
77586;SDS011;66744;49.716;17.158;2023-11-21T08:38:55;14.70;;;7.82;;
77586;SDS011;66744;49.716;17.158;2023-11-21T08:41:57;18.65;;;8.32;;
77586;SDS011;66744;49.716;17.158;2023-11-21T08:44:58;17.75;;;10.43;;
77586;SDS011;66744;49.716;17.158;2023-11-21T08:48:00;18.80;;;10.57;;
77586;SDS011;66744;49.716;17.158;2023-11-21T08:51:02;13.10;;;7.53;;
77586;SDS011;66744;49.716;17.158;2023-11-21T08:54:04;10.90;;;7.20;;
77586;SDS011;66744;49.716;17.158;2023-11-21T08:57:08;9.88;;;6.57;;
77586;SDS011;66744;49.716;17.158;2023-11-21T09:00:10;11.23;;;7.32;;
77586;SDS011;66744;49.716;17.158;2023-11-21T09:03:16;13.98;;;7.53;;
77586;SDS011;66744;49.716;17.158;2023-11-21T09:06:18;18.13;;;9.13;;
77586;SDS011;66744;49.716;17.158;2023-11-21T09:09:19;11.73;;;7.78;;
77586;SDS011;66744;49.716;17.158;2023-11-21T09:12:20;13.57;;;8.63;;
77586;SDS011;66744;49.716;17.158;2023-11-21T09:15:22;13.82;;;7.38;;
77586;SDS011;66744;49.716;17.158;2023-11-21T09:18:23;15.48;;;9.15;;
77586;SDS011;66744;49.716;17.158;2023-11-21T09:21:24;15.60;;;8.73;;
77586;SDS011;66744;49.716;17.158;2023-11-21T09:24:26;16.55;;;10.13;;
77586;SDS011;66744;49.716;17.158;2023-11-21T09:27:27;12.43;;;7.88;;
77586;SDS011;66744;49.716;17.158;2023-11-21T09:30:28;11.40;;;7.75;;
77586;SDS011;66744;49.716;17.158;2023-11-21T09:33:31;9.95;;;6.20;;
77586;SDS011;66744;49.716;17.158;2023-11-21T09:36:32;11.13;;;6.13;;
77586;SDS011;66744;49.716;17.158;2023-11-21T09:39:34;10.57;;;5.68;;
77586;SDS011;66744;49.716;17.158;2023-11-21T09:42:39;10.85;;;5.60;;
77586;SDS011;66744;49.716;17.158;2023-11-21T09:45:48;12.13;;;6.05;;
77586;SDS011;66744;49.716;17.158;2023-11-21T09:48:57;11.43;;;6.05;;
77586;SDS011;66744;49.716;17.158;2023-11-21T09:52:03;13.52;;;6.65;;
77586;SDS011;66744;49.716;17.158;2023-11-21T09:55:06;9.93;;;6.00;;
77586;SDS011;66744;49.716;17.158;2023-11-21T09:58:08;9.75;;;6.10;;
77586;SDS011;66744;49.716;17.158;2023-11-21T10:01:12;8.93;;;5.97;;
77586;SDS011;66744;49.716;17.158;2023-11-21T10:04:15;12.50;;;7.35;;
77586;SDS011;66744;49.716;17.158;2023-11-21T10:07:18;14.13;;;9.20;;
77586;SDS011;66744;49.716;17.158;2023-11-21T10:10:21;12.20;;;7.38;;
77586;SDS011;66744;49.716;17.158;2023-11-21T10:13:24;14.00;;;7.65;;
77586;SDS011;66744;49.716;17.158;2023-11-21T10:16:27;12.60;;;7.25;;
77586;SDS011;66744;49.716;17.158;2023-11-21T10:19:29;13.15;;;8.02;;
77586;SDS011;66744;49.716;17.158;2023-11-21T10:22:31;16.55;;;8.68;;
77586;SDS011;66744;49.716;17.158;2023-11-21T10:25:32;12.32;;;7.03;;
77586;SDS011;66744;49.716;17.158;2023-11-21T10:28:35;17.83;;;8.32;;
77586;SDS011;66744;49.716;17.158;2023-11-21T10:31:38;11.10;;;7.18;;
77586;SDS011;66744;49.716;17.158;2023-11-21T10:34:40;13.80;;;8.02;;
77586;SDS011;66744;49.716;17.158;2023-11-21T10:37:42;13.30;;;7.75;;
77586;SDS011;66744;49.716;17.158;2023-11-21T10:40:46;12.02;;;6.97;;
77586;SDS011;66744;49.716;17.158;2023-11-21T10:43:48;11.98;;;7.20;;
77586;SDS011;66744;49.716;17.158;2023-11-21T10:46:50;13.45;;;7.45;;
77586;SDS011;66744;49.716;17.158;2023-11-21T10:49:52;11.60;;;7.03;;
77586;SDS011;66744;49.716;17.158;2023-11-21T10:52:54;15.60;;;9.35;;
77586;SDS011;66744;49.716;17.158;2023-11-21T10:56:05;17.83;;;8.38;;
77586;SDS011;66744;49.716;17.158;2023-11-21T10:59:09;15.05;;;8.20;;
77586;SDS011;66744;49.716;17.158;2023-11-21T11:05:33;14.88;;;7.68;;
77586;SDS011;66744;49.716;17.158;2023-11-21T11:08:37;12.05;;;8.10;;
77586;SDS011;66744;49.716;17.158;2023-11-21T11:11:40;12.90;;;8.40;;
77586;SDS011;66744;49.716;17.158;2023-11-21T11:14:48;15.82;;;8.32;;
77586;SDS011;66744;49.716;17.158;2023-11-21T11:17:49;14.30;;;8.93;;
77586;SDS011;66744;49.716;17.158;2023-11-21T11:20:51;15.20;;;8.95;;
77586;SDS011;66744;49.716;17.158;2023-11-21T11:27:06;12.95;;;7.70;;
77586;SDS011;66744;49.716;17.158;2023-11-21T11:30:46;11.85;;;7.78;;
77586;SDS011;66744;49.716;17.158;2023-11-21T11:34:14;11.23;;;7.43;;
77586;SDS011;66744;49.716;17.158;2023-11-21T11:37:40;9.38;;;6.82;;
77586;SDS011;66744;49.716;17.158;2023-11-21T11:40:42;17.38;;;8.70;;
77586;SDS011;66744;49.716;17.158;2023-11-21T11:43:46;20.25;;;10.10;;
77586;SDS011;66744;49.716;17.158;2023-11-21T11:46:47;20.33;;;11.63;;
77586;SDS011;66744;49.716;17.158;2023-11-21T11:49:58;16.98;;;10.75;;
77586;SDS011;66744;49.716;17.158;2023-11-21T11:53:14;18.92;;;10.63;;
77586;SDS011;66744;49.716;17.158;2023-11-21T11:59:23;23.10;;;13.68;;
77586;SDS011;66744;49.716;17.158;2023-11-21T12:02:25;23.70;;;12.88;;
77586;SDS011;66744;49.716;17.158;2023-11-21T12:05:26;16.88;;;10.13;;
77586;SDS011;66744;49.716;17.158;2023-11-21T12:08:34;12.70;;;8.18;;
77586;SDS011;66744;49.716;17.158;2023-11-21T12:11:36;12.70;;;7.43;;
77586;SDS011;66744;49.716;17.158;2023-11-21T12:14:37;12.40;;;7.32;;
77586;SDS011;66744;49.716;17.158;2023-11-21T12:17:42;13.18;;;8.48;;
77586;SDS011;66744;49.716;17.158;2023-11-21T12:20:44;13.20;;;7.72;;
77586;SDS011;66744;49.716;17.158;2023-11-21T12:23:47;11.40;;;6.82;;
77586;SDS011;66744;49.716;17.158;2023-11-21T12:26:49;12.80;;;7.45;;
77586;SDS011;66744;49.716;17.158;2023-11-21T12:29:50;13.05;;;8.32;;
77586;SDS011;66744;49.716;17.158;2023-11-21T12:32:51;10.25;;;7.53;;
77586;SDS011;66744;49.716;17.158;2023-11-21T12:35:54;14.57;;;8.82;;
77586;SDS011;66744;49.716;17.158;2023-11-21T12:38:55;16.45;;;8.38;;
77586;SDS011;66744;49.716;17.158;2023-11-21T12:41:57;12.63;;;7.60;;
77586;SDS011;66744;49.716;17.158;2023-11-21T12:48:20;13.70;;;8.07;;
77586;SDS011;66744;49.716;17.158;2023-11-21T12:51:25;11.93;;;8.02;;
77586;SDS011;66744;49.716;17.158;2023-11-21T12:54:26;10.57;;;7.57;;
77586;SDS011;66744;49.716;17.158;2023-11-21T12:57:28;11.82;;;7.90;;
77586;SDS011;66744;49.716;17.158;2023-11-21T13:00:34;10.27;;;7.30;;
77586;SDS011;66744;49.716;17.158;2023-11-21T13:03:39;11.95;;;7.25;;
77586;SDS011;66744;49.716;17.158;2023-11-21T13:06:41;11.30;;;7.32;;
77586;SDS011;66744;49.716;17.158;2023-11-21T13:09:42;12.88;;;8.10;;
77586;SDS011;66744;49.716;17.158;2023-11-21T13:12:45;15.77;;;10.48;;
77586;SDS011;66744;49.716;17.158;2023-11-21T13:15:53;16.92;;;10.00;;
77586;SDS011;66744;49.716;17.158;2023-11-21T13:18:58;13.43;;;8.77;;
77586;SDS011;66744;49.716;17.158;2023-11-21T13:21:59;16.92;;;9.50;;
77586;SDS011;66744;49.716;17.158;2023-11-21T13:25:04;17.25;;;9.07;;
77586;SDS011;66744;49.716;17.158;2023-11-21T13:28:08;15.52;;;10.38;;
77586;SDS011;66744;49.716;17.158;2023-11-21T13:31:10;24.35;;;14.20;;
77586;SDS011;66744;49.716;17.158;2023-11-21T13:34:21;19.08;;;9.02;;
77586;SDS011;66744;49.716;17.158;2023-11-21T13:37:23;14.90;;;9.30;;
77586;SDS011;66744;49.716;17.158;2023-11-21T13:40:26;12.13;;;8.05;;
77586;SDS011;66744;49.716;17.158;2023-11-21T13:43:28;19.40;;;9.13;;
77586;SDS011;66744;49.716;17.158;2023-11-21T13:46:29;14.63;;;9.40;;
77586;SDS011;66744;49.716;17.158;2023-11-21T13:49:37;14.57;;;9.38;;
77586;SDS011;66744;49.716;17.158;2023-11-21T13:52:41;17.73;;;10.35;;
77586;SDS011;66744;49.716;17.158;2023-11-21T13:55:45;12.25;;;9.00;;
77586;SDS011;66744;49.716;17.158;2023-11-21T13:58:47;14.57;;;9.30;;
77586;SDS011;66744;49.716;17.158;2023-11-21T14:01:52;14.43;;;10.30;;
77586;SDS011;66744;49.716;17.158;2023-11-21T14:04:56;15.68;;;11.48;;
77586;SDS011;66744;49.716;17.158;2023-11-21T14:08:01;15.98;;;9.88;;
77586;SDS011;66744;49.716;17.158;2023-11-21T14:11:06;13.20;;;8.80;;
77586;SDS011;66744;49.716;17.158;2023-11-21T14:14:08;15.57;;;9.70;;
77586;SDS011;66744;49.716;17.158;2023-11-21T14:17:10;19.02;;;8.93;;
77586;SDS011;66744;49.716;17.158;2023-11-21T14:20:12;15.88;;;10.30;;
77586;SDS011;66744;49.716;17.158;2023-11-21T14:23:16;20.13;;;11.20;;
77586;SDS011;66744;49.716;17.158;2023-11-21T14:26:18;26.38;;;14.90;;
77586;SDS011;66744;49.716;17.158;2023-11-21T14:29:21;38.08;;;17.80;;
77586;SDS011;66744;49.716;17.158;2023-11-21T14:32:24;30.50;;;16.88;;
77586;SDS011;66744;49.716;17.158;2023-11-21T14:35:26;41.08;;;19.90;;
77586;SDS011;66744;49.716;17.158;2023-11-21T14:38:28;30.52;;;16.88;;
77586;SDS011;66744;49.716;17.158;2023-11-21T14:41:29;27.55;;;14.52;;
77586;SDS011;66744;49.716;17.158;2023-11-21T14:44:30;18.17;;;11.57;;
77586;SDS011;66744;49.716;17.158;2023-11-21T14:47:36;19.73;;;11.32;;
77586;SDS011;66744;49.716;17.158;2023-11-21T14:50:42;23.38;;;12.57;;
77586;SDS011;66744;49.716;17.158;2023-11-21T14:53:43;19.73;;;11.90;;
77586;SDS011;66744;49.716;17.158;2023-11-21T14:56:54;17.88;;;11.60;;
77586;SDS011;66744;49.716;17.158;2023-11-21T14:59:55;17.95;;;11.25;;
77586;SDS011;66744;49.716;17.158;2023-11-21T15:03:00;19.52;;;10.75;;
77586;SDS011;66744;49.716;17.158;2023-11-21T15:06:04;17.83;;;9.15;;
77586;SDS011;66744;49.716;17.158;2023-11-21T15:09:24;14.57;;;9.10;;
77586;SDS011;66744;49.716;17.158;2023-11-21T15:12:37;12.73;;;7.25;;
77586;SDS011;66744;49.716;17.158;2023-11-21T15:15:41;13.07;;;8.43;;
77586;SDS011;66744;49.716;17.158;2023-11-21T15:18:43;10.30;;;7.07;;
77586;SDS011;66744;49.716;17.158;2023-11-21T15:21:44;11.85;;;8.35;;
77586;SDS011;66744;49.716;17.158;2023-11-21T15:24:48;12.20;;;6.65;;
77586;SDS011;66744;49.716;17.158;2023-11-21T15:27:50;17.33;;;10.27;;
77586;SDS011;66744;49.716;17.158;2023-11-21T15:30:51;16.17;;;8.88;;
77586;SDS011;66744;49.716;17.158;2023-11-21T15:33:53;13.90;;;8.07;;
77586;SDS011;66744;49.716;17.158;2023-11-21T15:36:54;11.52;;;7.72;;
77586;SDS011;66744;49.716;17.158;2023-11-21T15:39:56;14.20;;;8.45;;
77586;SDS011;66744;49.716;17.158;2023-11-21T15:42:57;17.48;;;8.15;;
77586;SDS011;66744;49.716;17.158;2023-11-21T15:45:58;11.40;;;8.10;;
77586;SDS011;66744;49.716;17.158;2023-11-21T15:49:02;13.90;;;7.70;;
77586;SDS011;66744;49.716;17.158;2023-11-21T15:52:11;13.90;;;8.00;;
77586;SDS011;66744;49.716;17.158;2023-11-21T15:55:12;17.73;;;9.90;;
77586;SDS011;66744;49.716;17.158;2023-11-21T15:58:14;17.58;;;9.88;;
77586;SDS011;66744;49.716;17.158;2023-11-21T16:01:15;13.07;;;9.43;;
77586;SDS011;66744;49.716;17.158;2023-11-21T16:04:16;16.67;;;9.90;;
77586;SDS011;66744;49.716;17.158;2023-11-21T16:07:18;15.68;;;9.63;;
77586;SDS011;66744;49.716;17.158;2023-11-21T16:10:19;17.10;;;9.90;;
77586;SDS011;66744;49.716;17.158;2023-11-21T16:13:20;13.00;;;8.95;;
77586;SDS011;66744;49.716;17.158;2023-11-21T16:16:22;13.07;;;8.20;;
77586;SDS011;66744;49.716;17.158;2023-11-21T16:19:24;18.67;;;10.48;;
77586;SDS011;66744;49.716;17.158;2023-11-21T16:22:25;15.15;;;10.02;;
77586;SDS011;66744;49.716;17.158;2023-11-21T16:25:28;17.48;;;10.45;;
77586;SDS011;66744;49.716;17.158;2023-11-21T16:28:30;15.80;;;8.88;;
77586;SDS011;66744;49.716;17.158;2023-11-21T16:31:32;11.25;;;7.40;;
77586;SDS011;66744;49.716;17.158;2023-11-21T16:34:33;13.57;;;7.80;;
77586;SDS011;66744;49.716;17.158;2023-11-21T16:37:36;14.07;;;8.65;;
77586;SDS011;66744;49.716;17.158;2023-11-21T16:40:37;18.73;;;9.23;;
77586;SDS011;66744;49.716;17.158;2023-11-21T16:43:38;11.45;;;7.28;;
77586;SDS011;66744;49.716;17.158;2023-11-21T16:46:40;14.00;;;7.45;;
77586;SDS011;66744;49.716;17.158;2023-11-21T16:49:46;12.40;;;8.68;;
77586;SDS011;66744;49.716;17.158;2023-11-21T16:52:47;11.95;;;8.68;;
77586;SDS011;66744;49.716;17.158;2023-11-21T16:55:48;14.63;;;8.10;;
77586;SDS011;66744;49.716;17.158;2023-11-21T16:58:49;14.30;;;8.27;;
77586;SDS011;66744;49.716;17.158;2023-11-21T17:01:51;13.57;;;9.18;;
77586;SDS011;66744;49.716;17.158;2023-11-21T17:04:52;15.45;;;7.82;;
77586;SDS011;66744;49.716;17.158;2023-11-21T17:07:54;12.10;;;7.65;;
77586;SDS011;66744;49.716;17.158;2023-11-21T17:10:55;12.40;;;7.80;;
77586;SDS011;66744;49.716;17.158;2023-11-21T17:13:56;14.05;;;7.45;;
77586;SDS011;66744;49.716;17.158;2023-11-21T17:16:59;11.90;;;7.35;;
77586;SDS011;66744;49.716;17.158;2023-11-21T17:20:01;8.05;;;6.05;;
77586;SDS011;66744;49.716;17.158;2023-11-21T17:23:07;8.55;;;5.40;;
77586;SDS011;66744;49.716;17.158;2023-11-21T17:26:09;9.77;;;6.60;;
77586;SDS011;66744;49.716;17.158;2023-11-21T17:29:15;7.78;;;5.80;;
77586;SDS011;66744;49.716;17.158;2023-11-21T17:32:16;8.88;;;6.05;;
77586;SDS011;66744;49.716;17.158;2023-11-21T17:35:18;8.35;;;5.20;;
77586;SDS011;66744;49.716;17.158;2023-11-21T17:38:19;9.20;;;5.85;;
77586;SDS011;66744;49.716;17.158;2023-11-21T17:41:20;7.00;;;5.10;;
77586;SDS011;66744;49.716;17.158;2023-11-21T17:44:22;10.70;;;7.95;;
77586;SDS011;66744;49.716;17.158;2023-11-21T17:47:24;8.32;;;6.47;;
77586;SDS011;66744;49.716;17.158;2023-11-21T17:50:27;6.78;;;5.05;;
77586;SDS011;66744;49.716;17.158;2023-11-21T17:53:28;6.20;;;4.80;;
77586;SDS011;66744;49.716;17.158;2023-11-21T17:56:29;6.80;;;4.88;;
77586;SDS011;66744;49.716;17.158;2023-11-21T17:59:31;11.20;;;5.78;;
77586;SDS011;66744;49.716;17.158;2023-11-21T18:02:32;8.50;;;4.93;;
77586;SDS011;66744;49.716;17.158;2023-11-21T18:05:33;10.45;;;5.35;;
77586;SDS011;66744;49.716;17.158;2023-11-21T18:08:35;9.68;;;5.93;;